createdAt,value
2018-05-23T00:02:00.232Z,10.47
2018-05-23T00:04:26.255Z,9.23
2018-05-23T00:06:52.610Z,8.80
2018-05-23T00:09:18.642Z,11.13
2018-05-23T00:11:44.769Z,9.37
2018-05-23T00:14:10.770Z,10.47
2018-05-23T00:16:37.536Z,10.67
2018-05-23T00:19:03.635Z,11.30
2018-05-23T00:21:29.762Z,9.90
2018-05-23T00:23:55.786Z,10.10
2018-05-23T00:26:21.808Z,13.27
2018-05-23T00:28:47.814Z,8.53
2018-05-23T00:31:13.808Z,9.53
2018-05-23T00:33:39.837Z,11.50
2018-05-23T00:36:06.104Z,11.47
2018-05-23T00:38:32.106Z,18.40
2018-05-23T00:40:58.134Z,11.63
2018-05-23T00:43:24.156Z,9.83
2018-05-23T00:45:50.559Z,9.93
2018-05-23T00:48:16.591Z,9.47
2018-05-23T00:50:42.680Z,10.47
2018-05-23T00:53:08.754Z,10.57
2018-05-23T00:55:34.761Z,11.20
2018-05-23T00:58:00.783Z,12.17
2018-05-23T01:00:26.874Z,12.43
2018-05-23T01:02:52.975Z,11.00
2018-05-23T01:05:18.989Z,10.30
2018-05-23T01:07:45.022Z,9.03
2018-05-23T01:10:11.070Z,9.57
2018-05-23T01:12:37.111Z,11.30
2018-05-23T01:15:03.134Z,9.80
2018-05-23T01:17:29.227Z,11.20
2018-05-23T01:19:55.385Z,12.23
2018-05-23T01:22:21.439Z,10.07
2018-05-23T01:24:47.462Z,9.80
2018-05-23T01:27:13.502Z,10.20
2018-05-23T01:29:39.587Z,10.60
2018-05-23T01:32:05.615Z,11.73
2018-05-23T01:34:31.628Z,10.30
2018-05-23T01:36:57.665Z,10.33
2018-05-23T01:39:23.737Z,9.80
2018-05-23T01:41:49.747Z,11.90
2018-05-23T01:44:15.801Z,10.87
2018-05-23T01:46:41.815Z,13.77
2018-05-23T01:49:19.971Z,12.03
2018-05-23T01:51:46.007Z,12.17
2018-05-23T01:54:12.034Z,12.60
2018-05-23T01:56:38.107Z,14.17
2018-05-23T01:59:04.129Z,13.37
2018-05-23T02:01:30.135Z,13.03
2018-05-23T02:03:56.238Z,15.10
2018-05-23T02:06:22.258Z,15.07
2018-05-23T02:08:48.450Z,14.43
2018-05-23T02:11:14.504Z,15.03
2018-05-23T02:13:40.589Z,14.53
2018-05-23T02:16:06.662Z,15.17
2018-05-23T02:18:32.716Z,15.27
2018-05-23T02:20:59.405Z,15.47
2018-05-23T02:23:25.414Z,16.20
2018-05-23T02:25:51.454Z,15.80
2018-05-23T02:28:17.578Z,15.67
2018-05-23T02:30:43.617Z,15.67
2018-05-23T02:33:09.645Z,16.77
2018-05-23T02:35:35.660Z,16.37
2018-05-23T02:38:01.672Z,17.07
2018-05-23T02:40:27.706Z,18.13
2018-05-23T02:42:53.741Z,17.07
2018-05-23T02:45:19.830Z,16.10
2018-05-23T02:47:45.859Z,16.40
2018-05-23T02:50:11.903Z,16.30
2018-05-23T02:52:37.951Z,17.40
2018-05-23T02:55:03.991Z,18.27
2018-05-23T02:57:30.039Z,16.57
2018-05-23T02:59:56.101Z,17.50
2018-05-23T03:02:22.159Z,16.03
2018-05-23T03:04:48.184Z,15.37
2018-05-23T03:07:14.217Z,14.00
2018-05-23T03:09:40.262Z,16.43
2018-05-23T03:12:06.281Z,16.87
2018-05-23T03:14:32.298Z,18.43
2018-05-23T03:16:58.346Z,18.63
2018-05-23T03:19:24.452Z,16.97
2018-05-23T03:21:50.474Z,18.27
2018-05-23T03:24:16.502Z,18.30
2018-05-23T03:26:42.566Z,18.53
2018-05-23T03:29:08.688Z,20.00
2018-05-23T03:31:34.706Z,19.00
2018-05-23T03:34:00.764Z,17.63
2018-05-23T03:36:27.129Z,20.43
2018-05-23T03:38:53.212Z,19.87
2018-05-23T03:41:19.311Z,20.80
2018-05-23T03:43:45.325Z,19.50
2018-05-23T03:46:11.325Z,19.83
2018-05-23T03:48:38.023Z,18.80
2018-05-23T03:51:04.050Z,19.93
2018-05-23T03:53:30.104Z,19.23
2018-05-23T03:55:56.151Z,17.97
2018-05-23T03:58:22.177Z,16.10
2018-05-23T04:03:59.965Z,19.20
2018-05-23T04:06:27.689Z,17.70
2018-05-23T04:08:53.725Z,17.87
2018-05-23T04:11:19.776Z,21.23
2018-05-23T04:13:45.789Z,19.47
2018-05-23T04:16:11.831Z,20.33
2018-05-23T04:18:37.877Z,19.87
2018-05-23T04:21:03.942Z,18.47
2018-05-23T04:23:29.968Z,19.10
2018-05-23T04:25:56.020Z,20.57
2018-05-23T04:28:22.073Z,23.63
2018-05-23T04:30:48.142Z,21.77
2018-05-23T04:33:14.176Z,24.83
2018-05-23T04:35:40.224Z,22.90
2018-05-23T04:38:06.253Z,22.63
2018-05-23T04:40:32.366Z,25.97
2018-05-23T04:42:58.421Z,23.30
2018-05-23T04:45:24.450Z,25.67
2018-05-23T04:47:50.494Z,23.63
2018-05-23T04:50:16.563Z,26.10
2018-05-23T04:52:42.692Z,26.57
2018-05-23T04:55:08.725Z,25.03
2018-05-23T04:57:34.755Z,23.40
2018-05-23T05:00:00.985Z,24.37
2018-05-23T05:02:27.545Z,24.47
2018-05-23T05:04:53.613Z,23.33
2018-05-23T05:07:19.684Z,28.80
2018-05-23T05:09:45.708Z,25.47
2018-05-23T05:12:11.762Z,24.70
2018-05-23T05:14:37.848Z,23.53
2018-05-23T05:17:03.890Z,26.80
2018-05-23T05:19:29.945Z,24.87
2018-05-23T05:21:56.350Z,29.27
2018-05-23T05:24:22.437Z,25.43
2018-05-23T05:26:48.503Z,27.30
2018-05-23T05:29:14.543Z,30.37
2018-05-23T05:31:40.731Z,28.20
2018-05-23T05:34:07.211Z,35.83
2018-05-23T05:36:33.292Z,35.33
2018-05-23T05:38:59.413Z,31.53
2018-05-23T05:41:25.431Z,39.27
2018-05-23T05:43:51.494Z,34.83
2018-05-23T05:46:17.602Z,36.57
2018-05-23T05:48:43.605Z,37.70
2018-05-23T05:51:09.698Z,34.50
2018-05-23T05:53:35.820Z,34.83
2018-05-23T05:56:01.787Z,34.67
2018-05-23T05:58:28.280Z,36.10
2018-05-23T06:00:54.281Z,33.93
2018-05-23T06:03:20.309Z,35.63
2018-05-23T06:05:46.390Z,32.07
2018-05-23T06:08:12.397Z,35.67
2018-05-23T06:10:38.457Z,35.50
2018-05-23T06:13:04.606Z,34.80
2018-05-23T06:15:30.648Z,38.07
2018-05-23T06:17:57.287Z,36.23
2018-05-23T06:20:23.348Z,32.00
2018-05-23T06:22:49.361Z,33.43
2018-05-23T06:25:15.481Z,34.17
2018-05-23T06:27:41.574Z,34.13
2018-05-23T06:30:07.623Z,28.80
2018-05-23T06:32:33.645Z,36.17
2018-05-23T06:34:59.686Z,34.07
2018-05-23T06:37:25.721Z,32.60
2018-05-23T06:39:51.722Z,31.97
2018-05-23T06:42:17.717Z,32.10
2018-05-23T06:44:43.740Z,32.37
2018-05-23T06:47:09.764Z,30.90
2018-05-23T06:49:35.794Z,29.73
2018-05-23T06:52:01.810Z,34.17
2018-05-23T06:54:27.831Z,33.37
2018-05-23T06:56:53.905Z,34.23
2018-05-23T06:59:19.945Z,34.20
2018-05-23T07:01:45.955Z,36.80
2018-05-23T07:04:12.005Z,32.20
2018-05-23T07:06:38.031Z,40.03
2018-05-23T07:09:05.025Z,40.07
2018-05-23T07:11:31.116Z,40.03
2018-05-23T07:13:57.164Z,42.97
2018-05-23T07:16:23.265Z,41.57
2018-05-23T07:18:49.309Z,42.90
2018-05-23T07:21:15.393Z,44.33
2018-05-23T07:23:41.579Z,41.93
2018-05-23T07:26:07.648Z,42.67
2018-05-23T07:28:33.706Z,38.47
2018-05-23T07:30:59.753Z,38.80
2018-05-23T07:33:25.804Z,39.10
2018-05-23T07:35:51.863Z,38.57
2018-05-23T07:38:17.900Z,37.13
2018-05-23T07:40:43.934Z,36.97
2018-05-23T07:43:09.983Z,35.80
2018-05-23T07:45:36.026Z,41.77
2018-05-23T07:48:02.051Z,40.77
2018-05-23T07:50:28.682Z,39.10
2018-05-23T07:52:54.807Z,38.63
2018-05-23T07:55:21.347Z,40.30
2018-05-23T07:57:47.422Z,41.30
2018-05-23T08:00:13.450Z,41.80
2018-05-23T08:02:39.546Z,38.03
2018-05-23T08:05:05.707Z,38.70
2018-05-23T08:07:31.751Z,41.97
2018-05-23T08:09:57.821Z,43.40
2018-05-23T08:12:23.878Z,41.23
2018-05-23T08:14:49.952Z,40.10
2018-05-23T08:17:16.018Z,41.10
2018-05-23T08:19:42.068Z,41.23
2018-05-23T08:22:08.084Z,39.47
2018-05-23T08:24:34.115Z,39.10
2018-05-23T08:27:00.232Z,35.23
2018-05-23T08:29:26.333Z,36.03
2018-05-23T08:31:52.369Z,27.47
2018-05-23T08:34:18.452Z,29.33
2018-05-23T08:36:44.858Z,31.83
2018-05-23T08:39:10.936Z,32.13
2018-05-23T08:41:36.996Z,29.27
2018-05-23T08:44:03.243Z,29.57
2018-05-23T08:46:29.340Z,24.07
2018-05-23T08:48:55.361Z,27.50
2018-05-23T08:51:21.548Z,27.30
2018-05-23T08:53:47.680Z,25.97
2018-05-23T08:56:13.734Z,30.23
2018-05-23T08:58:39.783Z,23.03
2018-05-23T09:01:05.850Z,23.50
2018-05-23T09:03:31.898Z,20.50
2018-05-23T09:05:58.006Z,20.93
2018-05-23T09:08:24.084Z,21.73
2018-05-23T09:10:50.142Z,20.93
2018-05-23T09:13:16.169Z,20.13
2018-05-23T09:15:42.182Z,21.50
2018-05-23T09:18:08.194Z,21.07
2018-05-23T09:20:34.257Z,20.60
2018-05-23T09:23:00.254Z,19.67
2018-05-23T09:25:26.393Z,18.20
2018-05-23T09:27:52.370Z,20.37
2018-05-23T09:30:18.447Z,19.70
2018-05-23T09:32:44.476Z,20.63
2018-05-23T09:35:10.524Z,20.03
2018-05-23T09:37:36.557Z,17.23
2018-05-23T09:40:03.243Z,17.87
2018-05-23T09:42:29.406Z,16.87
2018-05-23T09:44:55.435Z,18.47
2018-05-23T09:47:21.456Z,17.20
2018-05-23T09:49:48.458Z,18.27
2018-05-23T09:52:14.533Z,16.13
2018-05-23T09:54:40.553Z,17.07
2018-05-23T09:57:06.664Z,16.60
2018-05-23T09:59:32.733Z,16.37
2018-05-23T10:01:58.779Z,16.97
2018-05-23T10:04:24.805Z,18.37
2018-05-23T10:06:51.002Z,18.37
2018-05-23T10:09:17.087Z,18.27
2018-05-23T10:11:43.215Z,17.00
2018-05-23T10:14:09.255Z,17.63
2018-05-23T10:16:35.271Z,19.13
2018-05-23T10:19:01.374Z,19.00
2018-05-23T10:21:27.498Z,17.47
2018-05-23T10:23:53.604Z,19.03
2018-05-23T10:26:19.726Z,18.40
2018-05-23T10:28:45.729Z,18.83
2018-05-23T10:31:11.796Z,19.57
2018-05-23T10:33:37.910Z,19.70
2018-05-23T10:36:03.919Z,20.43
2018-05-23T10:38:29.961Z,20.63
2018-05-23T10:40:56.012Z,21.47
2018-05-23T10:43:22.087Z,20.17
2018-05-23T10:45:48.134Z,19.50
2018-05-23T10:48:14.166Z,20.20
2018-05-23T10:50:40.227Z,21.57
2018-05-23T10:53:06.322Z,19.83
2018-05-23T10:55:32.405Z,20.93
2018-05-23T10:57:58.495Z,21.63
2018-05-23T11:00:24.582Z,21.73
2018-05-23T11:02:50.694Z,22.53
2018-05-23T11:05:16.703Z,23.57
2018-05-23T11:07:42.847Z,23.60
2018-05-23T11:10:08.898Z,24.20
2018-05-23T11:12:34.913Z,24.30
2018-05-23T11:15:01.092Z,23.47
2018-05-23T11:17:27.183Z,25.77
2018-05-23T11:19:53.278Z,24.67
2018-05-23T11:22:19.298Z,23.90
2018-05-23T11:24:45.373Z,24.63
2018-05-23T11:27:11.539Z,26.23
2018-05-23T11:29:37.620Z,25.10
2018-05-23T11:32:03.685Z,26.97
2018-05-23T11:34:29.717Z,25.93
2018-05-23T11:36:55.845Z,27.23
2018-05-23T11:39:21.889Z,26.80
2018-05-23T11:41:47.895Z,25.10
2018-05-23T11:44:13.922Z,22.57
2018-05-23T11:46:39.970Z,20.97
2018-05-23T11:49:05.959Z,20.43
2018-05-23T11:51:32.031Z,19.90
2018-05-23T11:53:58.085Z,19.23
2018-05-23T11:56:24.110Z,21.37
2018-05-23T11:58:50.266Z,19.10
2018-05-23T12:01:16.293Z,19.20
2018-05-23T12:03:42.303Z,18.13
2018-05-23T12:06:08.331Z,17.53
2018-05-23T12:08:34.408Z,16.40
2018-05-23T12:11:00.454Z,16.93
2018-05-23T12:13:26.500Z,15.90
2018-05-23T12:15:52.547Z,16.73
2018-05-23T12:18:18.621Z,17.90
2018-05-23T12:20:44.640Z,17.10
2018-05-23T12:23:10.705Z,17.23
2018-05-23T12:25:36.758Z,17.67
2018-05-23T12:28:03.790Z,15.90
2018-05-23T12:30:29.813Z,15.33
2018-05-23T12:32:55.866Z,14.93
2018-05-23T12:35:21.909Z,17.27
2018-05-23T12:37:47.940Z,16.13
2018-05-23T12:40:13.964Z,16.07
2018-05-23T12:42:40.026Z,15.73
2018-05-23T12:45:06.044Z,16.10
2018-05-23T12:47:32.152Z,15.63
2018-05-23T12:49:58.179Z,15.93
2018-05-23T12:52:24.210Z,17.63
2018-05-23T12:54:50.369Z,17.07
2018-05-23T12:57:16.446Z,17.10
2018-05-23T12:59:42.598Z,17.23
2018-05-23T13:02:08.646Z,17.00
2018-05-23T13:04:34.708Z,17.60
2018-05-23T13:07:00.745Z,18.50
2018-05-23T13:09:26.858Z,19.93
2018-05-23T13:11:52.893Z,19.10
2018-05-23T13:14:19.219Z,19.73
2018-05-23T13:16:45.334Z,18.57
2018-05-23T13:19:11.418Z,19.53
2018-05-23T13:21:37.545Z,17.00
2018-05-23T13:24:03.610Z,18.90
2018-05-23T13:26:29.724Z,18.40
2018-05-23T13:28:55.745Z,17.87
2018-05-23T13:31:21.826Z,17.13
2018-05-23T13:33:47.859Z,16.67
2018-05-23T13:36:13.875Z,18.10
2018-05-23T13:38:39.912Z,15.77
2018-05-23T13:41:05.933Z,16.40
2018-05-23T13:43:31.962Z,15.97
2018-05-23T13:45:57.990Z,14.73
2018-05-23T13:48:24.032Z,15.47
2018-05-23T13:50:50.156Z,16.90
2018-05-23T13:53:16.209Z,15.77
2018-05-23T13:55:42.267Z,14.63
2018-05-23T13:58:08.331Z,14.27
2018-05-23T14:00:34.350Z,14.17
2018-05-23T14:03:00.374Z,12.90
2018-05-23T14:05:26.426Z,14.73
2018-05-23T14:07:52.438Z,13.70
2018-05-23T14:10:18.519Z,13.67
2018-05-23T14:12:44.610Z,14.30
2018-05-23T14:15:10.702Z,15.33
2018-05-23T14:17:36.735Z,12.77
2018-05-23T14:20:02.964Z,16.10
2018-05-23T14:22:29.044Z,13.37
2018-05-23T14:24:56.054Z,13.40
2018-05-23T14:27:22.066Z,13.33
2018-05-23T14:29:48.117Z,13.27
2018-05-23T14:32:14.201Z,11.40
2018-05-23T14:34:40.225Z,11.70
2018-05-23T14:37:06.280Z,10.90
2018-05-23T14:39:32.367Z,12.90
2018-05-23T14:41:58.407Z,12.80
2018-05-23T14:44:24.494Z,13.17
2018-05-23T14:46:50.789Z,11.13
2018-05-23T14:49:16.831Z,10.40
2018-05-23T14:51:42.898Z,10.10
2018-05-23T14:54:09.080Z,9.40
2018-05-23T14:56:35.309Z,8.13
2018-05-23T14:59:01.470Z,6.90
2018-05-23T15:01:27.515Z,6.90
2018-05-23T15:03:53.589Z,7.50
2018-05-23T15:06:19.678Z,7.73
2018-05-23T15:08:45.779Z,7.97
2018-05-23T15:11:11.912Z,9.77
2018-05-23T15:13:37.957Z,8.77
2018-05-23T15:16:04.007Z,10.20
2018-05-23T15:18:30.056Z,10.27
2018-05-23T15:20:56.223Z,11.00
2018-05-23T15:23:22.308Z,12.10
2018-05-23T15:25:48.346Z,10.90
2018-05-23T15:28:14.397Z,8.23
2018-05-23T15:30:40.480Z,7.93
2018-05-23T15:33:06.549Z,10.17
2018-05-23T15:35:32.645Z,6.10
2018-05-23T15:37:58.679Z,6.70
2018-05-23T15:40:24.737Z,9.90
2018-05-23T15:42:51.036Z,10.83
2018-05-23T15:45:17.197Z,10.40
2018-05-23T15:47:43.276Z,11.63
2018-05-23T15:50:09.438Z,12.07
2018-05-23T15:52:35.499Z,13.93
2018-05-23T15:55:01.639Z,13.63
2018-05-23T15:57:27.688Z,15.53
2018-05-23T15:59:53.733Z,16.30
2018-05-23T16:02:19.754Z,15.77
2018-05-23T21:55:03.750Z,6.33
2018-05-23T21:57:29.801Z,6.53
2018-05-23T21:59:56.020Z,7.10
2018-05-23T22:02:22.083Z,7.03
2018-05-23T22:04:48.150Z,7.33
2018-05-23T22:07:14.184Z,6.87
2018-05-23T22:09:40.232Z,7.17
2018-05-23T22:12:06.494Z,8.67
2018-05-23T22:14:32.555Z,7.40
2018-05-23T22:16:58.613Z,7.20
2018-05-23T22:19:24.688Z,7.27
2018-05-23T22:21:50.713Z,7.67
2018-05-23T22:24:16.728Z,7.27
2018-05-23T22:26:42.776Z,7.30
2018-05-23T22:29:08.833Z,7.43
2018-05-23T22:31:34.882Z,7.27
2018-05-23T22:34:00.922Z,8.70
2018-05-23T22:36:26.969Z,7.47
2018-05-23T22:38:53.119Z,7.47
2018-05-23T22:41:19.177Z,7.53
2018-05-23T22:43:45.371Z,9.63
2018-05-23T22:46:11.802Z,7.60
2018-05-23T22:48:38.695Z,6.87
2018-05-23T22:51:04.731Z,7.00
2018-05-23T22:53:30.746Z,11.30
2018-05-23T22:55:56.785Z,6.17
2018-05-23T22:58:22.946Z,6.17
2018-05-23T23:00:48.976Z,5.23
2018-05-23T23:03:15.715Z,5.23
2018-05-23T23:05:41.896Z,5.50
2018-05-23T23:08:07.922Z,5.07
2018-05-23T23:10:33.960Z,6.97
2018-05-23T23:13:00.105Z,5.80
2018-05-23T23:15:26.129Z,4.70
2018-05-23T23:17:52.165Z,5.57
2018-05-23T23:20:18.206Z,5.27
2018-05-23T23:22:44.314Z,6.13
2018-05-23T23:25:10.404Z,4.73
2018-05-23T23:27:36.605Z,4.53
2018-05-23T23:30:02.737Z,5.60
2018-05-23T23:32:28.684Z,4.70
2018-05-23T23:34:54.755Z,7.20
2018-05-23T23:37:20.857Z,4.43
2018-05-23T23:39:47.050Z,5.03
2018-05-23T23:42:13.366Z,4.40
2018-05-23T23:44:39.746Z,4.27
2018-05-23T23:47:05.775Z,4.60
2018-05-23T23:49:31.805Z,4.73
2018-05-23T23:51:57.878Z,5.23
2018-05-23T23:54:24.131Z,7.57
2018-05-23T23:56:50.150Z,5.40
2018-05-23T23:59:16.204Z,5.90
